Time;durP1;ratioP1;P1;durP2;ratioP2;P2;SDS_P1;SDS_P2;PMS_P1;PMS_P2;Temp;Humidity;BMP_temperature;BMP_pressure;BME280_temperature;BME280_humidity;BME280_pressure;Samples;Min_cycle;Max_cycle;Signal;HPM_P1;HPM_P2
2023/09/07 00:00:52;;;;;;;8.98;4.72;;;;;;;;;;6212447;28;20085;-78
2023/09/07 00:03:54;;;;;;;5.78;4.50;;;;;;;;;;6198759;28;20710;-79
2023/09/07 00:06:55;;;;;;;7.03;4.32;;;;;;;;;;6203513;28;20451;-79
2023/09/07 00:09:57;;;;;;;7.80;4.70;;;;;;;;;;6211380;28;20045;-80
2023/09/07 00:12:59;;;;;;;6.88;4.78;;;;;;;;;;6218012;28;20048;-78
2023/09/07 00:16:02;;;;;;;6.28;4.57;;;;;;;;;;6206974;28;20042;-77
2023/09/07 00:19:05;;;;;;;7.60;4.07;;;;;;;;;;6218849;28;20093;-79
2023/09/07 00:22:06;;;;;;;6.60;4.50;;;;;;;;;;6213500;28;20696;-76
2023/09/07 00:25:09;;;;;;;7.97;4.82;;;;;;;;;;6220445;28;20802;-80
2023/09/07 00:28:10;;;;;;;7.22;4.75;;;;;;;;;;6219271;28;20057;-79
2023/09/07 00:31:12;;;;;;;6.38;4.70;;;;;;;;;;6221172;28;20052;-78
2023/09/07 00:34:14;;;;;;;6.85;4.47;;;;;;;;;;6210252;28;20041;-80
2023/09/07 00:37:15;;;;;;;9.63;5.03;;;;;;;;;;6200302;28;20041;-77
2023/09/07 00:40:17;;;;;;;6.63;4.85;;;;;;;;;;6221537;28;20042;-77
2023/09/07 00:43:19;;;;;;;8.35;5.00;;;;;;;;;;6221025;28;20098;-77
2023/09/07 00:46:21;;;;;;;6.05;4.22;;;;;;;;;;6228033;28;20074;-79
2023/09/07 00:49:24;;;;;;;7.10;4.70;;;;;;;;;;6178640;28;20042;-80
2023/09/07 00:52:27;;;;;;;6.97;4.60;;;;;;;;;;6224334;28;20049;-76
2023/09/07 00:55:32;;;;;;;6.85;4.20;;;;;;;;;;6197094;28;20646;-76
2023/09/07 00:58:36;;;;;;;6.38;4.82;;;;;;;;;;6215234;28;20050;-76
2023/09/07 01:01:37;;;;;;;;;;;;;;;;;;6207062;28;20056;-77
2023/09/07 01:04:42;;;;;;;7.47;3.90;;;;;;;;;;6218231;28;20420;-79
2023/09/07 01:07:47;;;;;;;7.15;4.07;;;;;;;;;;6202627;28;20053;-79
2023/09/07 01:10:49;;;;;;;8.30;4.30;;;;;;;;;;6200293;28;20042;-80
2023/09/07 01:13:53;;;;;;;6.47;4.07;;;;;;;;;;6227605;28;20053;-77
2023/09/07 01:16:55;;;;;;;7.60;4.25;;;;;;;;;;6215853;28;20049;-80
2023/09/07 01:20:05;;;;;;;5.87;4.27;;;;;;;;;;6202323;28;20041;-80
2023/09/07 01:23:07;;;;;;;6.65;4.40;;;;;;;;;;6218148;28;20445;-80
2023/09/07 01:26:10;;;;;;;7.13;4.40;;;;;;;;;;6212973;28;20037;-81
2023/09/07 01:29:11;;;;;;;7.80;4.82;;;;;;;;;;6209078;28;20049;-77
2023/09/07 01:32:14;;;;;;;6.05;4.15;;;;;;;;;;6188921;28;20041;-80
2023/09/07 01:35:16;;;;;;;6.82;4.40;;;;;;;;;;6191236;28;20056;-79
2023/09/07 01:38:18;;;;;;;6.30;4.37;;;;;;;;;;6190357;28;20057;-77
2023/09/07 01:41:20;;;;;;;7.20;4.28;;;;;;;;;;6220653;28;21210;-78
2023/09/07 01:44:22;;;;;;;6.25;4.35;;;;;;;;;;6209849;28;20136;-78
2023/09/07 01:47:24;;;;;;;6.60;4.43;;;;;;;;;;6206982;28;20039;-78
2023/09/07 01:50:26;;;;;;;6.22;4.40;;;;;;;;;;6212017;28;20046;-78
2023/09/07 01:53:28;;;;;;;7.00;4.35;;;;;;;;;;6205083;28;20046;-80
2023/09/07 01:56:30;;;;;;;7.88;4.50;;;;;;;;;;6214598;28;20041;-78
2023/09/07 01:59:32;;;;;;;5.82;4.45;;;;;;;;;;6206386;28;20041;-78
2023/09/07 02:02:33;;;;;;;5.40;4.13;;;;;;;;;;6184775;28;20046;-75
2023/09/07 02:05:35;;;;;;;5.55;3.75;;;;;;;;;;6208417;28;20050;-79
2023/09/07 02:08:37;;;;;;;5.13;3.83;;;;;;;;;;6211121;28;20037;-76
2023/09/07 02:11:39;;;;;;;6.00;4.07;;;;;;;;;;6211228;28;20121;-78
2023/09/07 02:14:41;;;;;;;5.45;3.95;;;;;;;;;;6220996;28;20054;-76
2023/09/07 02:17:44;;;;;;;7.30;4.20;;;;;;;;;;6208777;28;20423;-79
2023/09/07 02:20:49;;;;;;;6.40;4.50;;;;;;;;;;6195915;28;20052;-76
2023/09/07 02:23:51;;;;;;;6.55;4.28;;;;;;;;;;6213162;28;20515;-77
2023/09/07 02:26:54;;;;;;;7.38;4.30;;;;;;;;;;6206203;28;20061;-78
2023/09/07 02:29:56;;;;;;;8.55;4.30;;;;;;;;;;6201124;28;20731;-77
2023/09/07 02:32:58;;;;;;;6.15;4.22;;;;;;;;;;6208655;28;20037;-80
2023/09/07 02:36:01;;;;;;;6.38;4.70;;;;;;;;;;6212796;28;20042;-79
2023/09/07 02:39:03;;;;;;;4.83;3.80;;;;;;;;;;6208414;28;21535;-76
2023/09/07 02:42:06;;;;;;;6.30;4.13;;;;;;;;;;6207900;28;20452;-80
2023/09/07 02:45:12;;;;;;;8.02;4.60;;;;;;;;;;6191855;28;20053;-77
2023/09/07 02:48:14;;;;;;;8.23;4.38;;;;;;;;;;6213283;28;20511;-80
2023/09/07 02:51:17;;;;;;;8.93;4.15;;;;;;;;;;6220574;28;20061;-78
2023/09/07 02:54:19;;;;;;;6.82;4.55;;;;;;;;;;6207036;28;20054;-77
2023/09/07 02:57:21;;;;;;;7.78;4.70;;;;;;;;;;6195017;28;20188;-78
2023/09/07 03:00:23;;;;;;;7.45;4.32;;;;;;;;;;6203158;28;20045;-79
2023/09/07 03:03:25;;;;;;;7.10;4.95;;;;;;;;;;6207282;28;20038;-78
2023/09/07 03:06:28;;;;;;;6.93;4.78;;;;;;;;;;6212019;28;20053;-76
2023/09/07 03:09:29;;;;;;;7.38;4.78;;;;;;;;;;6215927;28;20041;-78
2023/09/07 03:12:31;;;;;;;5.40;4.18;;;;;;;;;;6194926;28;20090;-77
2023/09/07 03:15:33;;;;;;;9.18;4.05;;;;;;;;;;6203117;28;20042;-79
2023/09/07 03:18:37;;;;;;;5.32;3.72;;;;;;;;;;6219732;28;20057;-80
2023/09/07 03:21:39;;;;;;;4.15;3.47;;;;;;;;;;6202377;28;20042;-79
2023/09/07 03:24:40;;;;;;;5.00;3.90;;;;;;;;;;6199172;28;20054;-79
2023/09/07 03:27:42;;;;;;;5.95;4.15;;;;;;;;;;6213762;28;20042;-79
2023/09/07 03:30:46;;;;;;;6.13;4.15;;;;;;;;;;6203471;28;20048;-78
2023/09/07 03:33:49;;;;;;;5.90;3.92;;;;;;;;;;6202031;28;20188;-78
2023/09/07 03:36:51;;;;;;;6.72;4.25;;;;;;;;;;6224817;28;20592;-79
2023/09/07 03:39:53;;;;;;;5.22;3.85;;;;;;;;;;6200301;28;20595;-77
2023/09/07 03:42:54;;;;;;;7.70;4.15;;;;;;;;;;6213009;28;20045;-77
2023/09/07 03:45:57;;;;;;;7.63;4.30;;;;;;;;;;6215280;28;20060;-78
2023/09/07 03:49:00;;;;;;;6.53;3.92;;;;;;;;;;6215332;28;20083;-78
2023/09/07 03:52:01;;;;;;;6.05;4.13;;;;;;;;;;6211297;28;20050;-78
2023/09/07 03:55:04;;;;;;;6.10;4.10;;;;;;;;;;6192167;28;20046;-78
2023/09/07 03:58:05;;;;;;;7.28;3.90;;;;;;;;;;6185044;28;20049;-77
2023/09/07 04:01:07;;;;;;;8.45;4.97;;;;;;;;;;6204980;28;20048;-77
2023/09/07 04:04:09;;;;;;;13.23;5.60;;;;;;;;;;6202998;28;20052;-79
2023/09/07 04:07:11;;;;;;;11.63;4.78;;;;;;;;;;6205935;28;20057;-78
2023/09/07 04:10:12;;;;;;;9.32;5.13;;;;;;;;;;6208335;28;20468;-79
2023/09/07 04:13:14;;;;;;;8.15;4.70;;;;;;;;;;6212082;28;20077;-77
2023/09/07 04:16:16;;;;;;;11.43;4.63;;;;;;;;;;6214407;28;20053;-77
2023/09/07 04:19:18;;;;;;;8.07;4.65;;;;;;;;;;6171606;28;20042;-80
2023/09/07 04:22:20;;;;;;;7.38;4.95;;;;;;;;;;6187524;28;20054;-79
2023/09/07 04:25:21;;;;;;;7.03;4.47;;;;;;;;;;6196016;28;20154;-79
2023/09/07 04:28:24;;;;;;;7.80;4.70;;;;;;;;;;6187362;28;20121;-79
2023/09/07 04:31:27;;;;;;;8.60;4.30;;;;;;;;;;6185895;28;20057;-77
2023/09/07 04:34:29;;;;;;;6.47;4.72;;;;;;;;;;6164634;28;20078;-75
2023/09/07 04:37:31;;;;;;;6.30;4.22;;;;;;;;;;6188955;28;20049;-78
2023/09/07 04:40:32;;;;;;;8.10;4.85;;;;;;;;;;6178626;28;20050;-78
2023/09/07 04:43:35;;;;;;;8.07;4.70;;;;;;;;;;6197051;28;20053;-77
2023/09/07 04:46:37;;;;;;;5.77;4.17;;;;;;;;;;6182020;28;20050;-77
2023/09/07 04:49:39;;;;;;;7.05;4.40;;;;;;;;;;6185007;28;20911;-78
2023/09/07 04:52:41;;;;;;;7.78;5.13;;;;;;;;;;6176185;28;20132;-78
2023/09/07 04:55:44;;;;;;;9.05;5.03;;;;;;;;;;6188411;28;20054;-77
2023/09/07 04:58:45;;;;;;;7.45;4.90;;;;;;;;;;6178808;28;20062;-79
2023/09/07 05:01:47;;;;;;;9.02;4.57;;;;;;;;;;6184099;28;20045;-79
2023/09/07 05:04:50;;;;;;;10.00;5.40;;;;;;;;;;6186260;28;20109;-79
2023/09/07 05:07:51;;;;;;;8.73;5.35;;;;;;;;;;6173398;28;20424;-79
2023/09/07 05:11:03;;;;;;;8.23;4.97;;;;;;;;;;6178237;28;20046;-80
2023/09/07 05:14:05;;;;;;;9.05;5.00;;;;;;;;;;6184050;28;20046;-78
2023/09/07 05:17:07;;;;;;;7.45;4.60;;;;;;;;;;6184357;28;20415;-77
2023/09/07 05:20:10;;;;;;;8.93;5.07;;;;;;;;;;6177966;28;20046;-77
2023/09/07 05:23:17;;;;;;;7.97;5.20;;;;;;;;;;6178109;28;20046;-78
2023/09/07 05:26:23;;;;;;;9.30;5.07;;;;;;;;;;6180183;28;20042;-79
2023/09/07 05:29:27;;;;;;;6.03;4.30;;;;;;;;;;6188767;28;20043;-78
2023/09/07 05:32:28;;;;;;;7.60;4.30;;;;;;;;;;6175485;28;20047;-77
2023/09/07 05:35:32;;;;;;;6.35;4.40;;;;;;;;;;6183099;28;20049;-77
2023/09/07 05:38:34;;;;;;;5.88;4.47;;;;;;;;;;6176317;28;20129;-77
2023/09/07 05:41:36;;;;;;;6.15;4.28;;;;;;;;;;6181706;28;20038;-77
2023/09/07 05:44:38;;;;;;;5.88;4.03;;;;;;;;;;6176562;28;20160;-77
2023/09/07 05:47:40;;;;;;;8.93;4.90;;;;;;;;;;6185610;28;20049;-77
2023/09/07 05:50:42;;;;;;;8.38;5.15;;;;;;;;;;6188607;28;20053;-79
2023/09/07 05:53:44;;;;;;;7.30;4.50;;;;;;;;;;6207521;28;20488;-79
2023/09/07 05:56:46;;;;;;;7.55;4.78;;;;;;;;;;6180023;28;20050;-78
2023/09/07 05:59:48;;;;;;;7.10;5.35;;;;;;;;;;6213503;28;20623;-76
2023/09/07 06:02:50;;;;;;;7.38;5.32;;;;;;;;;;6188966;28;20075;-77
2023/09/07 06:05:52;;;;;;;10.45;5.50;;;;;;;;;;6181912;28;20046;-77
2023/09/07 06:08:54;;;;;;;7.70;5.05;;;;;;;;;;6175446;28;20043;-77
2023/09/07 06:11:56;;;;;;;9.65;5.45;;;;;;;;;;6179505;28;20546;-79
2023/09/07 06:15:00;;;;;;;8.07;5.40;;;;;;;;;;6165886;28;20049;-78
2023/09/07 06:18:03;;;;;;;8.45;5.38;;;;;;;;;;6176697;28;20046;-76
2023/09/07 06:21:06;;;;;;;8.20;5.88;;;;;;;;;;6204315;28;20052;-77
2023/09/07 06:24:08;;;;;;;8.05;5.80;;;;;;;;;;6194871;28;20053;-78
2023/09/07 06:27:09;;;;;;;8.80;5.55;;;;;;;;;;6191383;28;20133;-77
2023/09/07 06:30:11;;;;;;;11.93;6.25;;;;;;;;;;6187651;28;20497;-76
2023/09/07 06:33:14;;;;;;;10.35;5.80;;;;;;;;;;6197900;28;20043;-76
2023/09/07 06:36:16;;;;;;;14.97;5.97;;;;;;;;;;6221794;28;20039;-80
2023/09/07 06:39:27;;;;;;;9.43;5.97;;;;;;;;;;6199858;28;20075;-79
2023/09/07 06:42:30;;;;;;;9.40;5.38;;;;;;;;;;6210857;28;20057;-80
2023/09/07 06:45:38;;;;;;;7.05;4.72;;;;;;;;;;6193608;28;20053;-80
2023/09/07 06:48:40;;;;;;;7.75;5.38;;;;;;;;;;6190499;28;20352;-78
2023/09/07 06:51:42;;;;;;;8.18;5.25;;;;;;;;;;6205682;28;20053;-79
2023/09/07 06:54:44;;;;;;;7.85;5.30;;;;;;;;;;6199967;28;20047;-81
2023/09/07 06:57:46;;;;;;;8.40;5.13;;;;;;;;;;6189802;28;20046;-79
2023/09/07 07:00:48;;;;;;;6.10;4.95;;;;;;;;;;6182594;28;20072;-79
2023/09/07 07:03:50;;;;;;;8.17;5.63;;;;;;;;;;6173722;28;20046;-77
2023/09/07 07:06:53;;;;;;;10.68;5.00;;;;;;;;;;6202734;28;20438;-79
2023/09/07 07:09:55;;;;;;;9.27;5.65;;;;;;;;;;6216975;28;20041;-78
2023/09/07 07:12:57;;;;;;;6.57;5.40;;;;;;;;;;6206344;28;20046;-79
2023/09/07 07:15:59;;;;;;;7.00;5.90;;;;;;;;;;6205065;28;20068;-80
2023/09/07 07:19:11;;;;;;;7.30;5.03;;;;;;;;;;6211914;28;20065;-78
2023/09/07 07:22:15;;;;;;;7.40;4.85;;;;;;;;;;6206144;28;20041;-79
2023/09/07 07:25:19;;;;;;;7.47;5.50;;;;;;;;;;6196927;28;20050;-79
2023/09/07 07:28:21;;;;;;;10.23;5.72;;;;;;;;;;6180672;28;20049;-77
2023/09/07 07:31:22;;;;;;;7.57;5.20;;;;;;;;;;6182735;28;20043;-76
2023/09/07 07:34:24;;;;;;;6.30;4.88;;;;;;;;;;6167946;28;20043;-77
2023/09/07 07:37:26;;;;;;;7.17;5.20;;;;;;;;;;6176822;28;20046;-77
2023/09/07 07:40:28;;;;;;;7.05;5.22;;;;;;;;;;6159784;28;20446;-78
2023/09/07 07:43:33;;;;;;;7.00;5.10;;;;;;;;;;6181434;28;20050;-77
2023/09/07 07:46:35;;;;;;;6.50;5.15;;;;;;;;;;6185820;28;20090;-76
2023/09/07 07:49:37;;;;;;;10.03;5.40;;;;;;;;;;6200048;28;20045;-79
2023/09/07 07:52:40;;;;;;;7.65;5.00;;;;;;;;;;6169700;28;20420;-76
2023/09/07 07:55:42;;;;;;;;;;;;;;;;;;6183525;28;20416;-77
2023/09/07 07:58:48;;;;;;;6.18;5.20;;;;;;;;;;6201426;28;19937;-78
2023/09/07 08:01:50;;;;;;;9.45;5.68;;;;;;;;;;6196104;28;20041;-78
2023/09/07 08:04:52;;;;;;;7.10;4.57;;;;;;;;;;6206642;28;20068;-80
2023/09/07 08:07:56;;;;;;;6.87;5.10;;;;;;;;;;6215626;28;20121;-76
2023/09/07 08:10:59;;;;;;;7.45;4.95;;;;;;;;;;6200194;28;20857;-77
2023/09/07 08:14:02;;;;;;;7.13;4.88;;;;;;;;;;6173457;28;20038;-77
2023/09/07 08:17:04;;;;;;;8.00;5.03;;;;;;;;;;6179397;28;20050;-76
2023/09/07 08:20:11;;;;;;;6.28;4.93;;;;;;;;;;6184650;28;20045;-76
2023/09/07 08:23:13;;;;;;;6.55;4.45;;;;;;;;;;6176947;28;20445;-76
2023/09/07 08:26:15;;;;;;;6.20;4.82;;;;;;;;;;6186206;28;20043;-77
2023/09/07 08:29:20;;;;;;;6.55;4.88;;;;;;;;;;6182980;28;20599;-78
2023/09/07 08:32:22;;;;;;;5.43;4.45;;;;;;;;;;6194018;28;20046;-79
2023/09/07 08:35:27;;;;;;;5.78;4.68;;;;;;;;;;6185692;28;20054;-79
2023/09/07 08:38:30;;;;;;;7.10;4.88;;;;;;;;;;6180096;28;20519;-77
2023/09/07 08:41:51;;;;;;;7.60;5.45;;;;;;;;;;6205596;28;20424;-75
2023/09/07 08:45:07;;;;;;;5.95;4.90;;;;;;;;;;6202718;28;20564;-78
2023/09/07 08:48:13;;;;;;;5.20;4.70;;;;;;;;;;6210129;28;20038;-76
2023/09/07 08:51:15;;;;;;;5.10;4.60;;;;;;;;;;6217983;28;20050;-77
2023/09/07 08:54:18;;;;;;;5.88;4.82;;;;;;;;;;6211600;28;20049;-76
2023/09/07 08:57:21;;;;;;;4.90;4.40;;;;;;;;;;6180380;28;20069;-75
2023/09/07 09:00:23;;;;;;;5.00;4.13;;;;;;;;;;6179007;28;20042;-75
2023/09/07 09:03:25;;;;;;;4.97;4.30;;;;;;;;;;6191069;28;20065;-75
2023/09/07 09:06:27;;;;;;;4.72;4.22;;;;;;;;;;6181950;28;20050;-77
2023/09/07 09:09:28;;;;;;;7.57;4.60;;;;;;;;;;6174089;28;20052;-75
2023/09/07 09:12:30;;;;;;;5.72;4.25;;;;;;;;;;6190142;28;20038;-76
2023/09/07 09:15:32;;;;;;;4.97;4.32;;;;;;;;;;6178111;28;20054;-75
2023/09/07 09:18:34;;;;;;;5.75;4.18;;;;;;;;;;6191415;28;20055;-76
2023/09/07 09:21:37;;;;;;;6.32;4.53;;;;;;;;;;6207459;28;20066;-77
2023/09/07 09:24:39;;;;;;;4.70;3.83;;;;;;;;;;6206291;28;20043;-79
2023/09/07 09:27:41;;;;;;;5.30;4.00;;;;;;;;;;6203452;28;20465;-79
2023/09/07 09:30:43;;;;;;;4.57;4.10;;;;;;;;;;6195376;28;20057;-77
2023/09/07 09:33:51;;;;;;;6.70;4.28;;;;;;;;;;6201138;28;20046;-79
2023/09/07 09:36:54;;;;;;;5.78;4.22;;;;;;;;;;6199126;28;20050;-80
2023/09/07 09:39:57;;;;;;;5.88;4.10;;;;;;;;;;6209313;28;20053;-79
2023/09/07 09:42:59;;;;;;;4.13;3.78;;;;;;;;;;6187004;28;20054;-79
2023/09/07 09:46:03;;;;;;;4.38;3.97;;;;;;;;;;6194464;28;20046;-79
2023/09/07 09:49:11;;;;;;;5.80;4.13;;;;;;;;;;6184292;28;20073;-80
2023/09/07 09:52:13;;;;;;;4.25;3.85;;;;;;;;;;6202938;28;20531;-77
2023/09/07 09:55:15;;;;;;;6.22;4.40;;;;;;;;;;6213334;28;20053;-76
2023/09/07 09:58:17;;;;;;;4.20;3.80;;;;;;;;;;6205307;28;20043;-78
2023/09/07 10:01:19;;;;;;;5.32;4.15;;;;;;;;;;6204325;28;20053;-79
2023/09/07 10:04:22;;;;;;;5.90;4.13;;;;;;;;;;6211751;28;20046;-78
2023/09/07 10:07:40;;;;;;;7.07;4.38;;;;;;;;;;6212253;28;20451;-79
2023/09/07 10:10:43;;;;;;;4.63;4.07;;;;;;;;;;6175993;28;20050;-78
2023/09/07 10:13:46;;;;;;;6.22;4.50;;;;;;;;;;6197144;28;20417;-80
2023/09/07 10:16:51;;;;;;;4.05;3.65;;;;;;;;;;6194810;28;20939;-82
2023/09/07 10:20:07;;;;;;;4.45;4.05;;;;;;;;;;6190873;28;20404;-80
2023/09/07 10:23:09;;;;;;;4.53;4.13;;;;;;;;;;6198726;28;20169;-80
2023/09/07 10:26:13;;;;;;;6.60;4.20;;;;;;;;;;6204897;28;20046;-76
2023/09/07 10:29:14;;;;;;;5.75;4.07;;;;;;;;;;6203692;28;20057;-78
2023/09/07 10:32:16;;;;;;;4.38;3.60;;;;;;;;;;6204540;28;20731;-78
2023/09/07 10:35:21;;;;;;;4.47;4.07;;;;;;;;;;6202288;28;20511;-78
2023/09/07 10:38:24;;;;;;;4.32;3.92;;;;;;;;;;6190705;28;20045;-78
2023/09/07 10:41:25;;;;;;;5.80;4.75;;;;;;;;;;6216944;28;20046;-80
2023/09/07 10:44:28;;;;;;;4.88;3.90;;;;;;;;;;6187272;28;20053;-78
2023/09/07 10:47:29;;;;;;;;;;;;;;;;;;6210907;28;20053;-80
2023/09/07 10:50:42;;;;;;;4.30;3.90;;;;;;;;;;6211586;28;19922;-78
2023/09/07 10:53:44;;;;;;;4.40;4.00;;;;;;;;;;6195732;28;20453;-79
2023/09/07 10:56:46;;;;;;;5.35;3.83;;;;;;;;;;6188392;28;20051;-80
2023/09/07 10:59:47;;;;;;;4.45;4.05;;;;;;;;;;6185368;28;20046;-79
2023/09/07 11:02:49;;;;;;;6.18;4.30;;;;;;;;;;6193882;28;20042;-79
2023/09/07 11:05:54;;;;;;;6.10;4.32;;;;;;;;;;6207478;28;20056;-78
2023/09/07 11:08:59;;;;;;;4.70;4.20;;;;;;;;;;6188095;28;20050;-80
2023/09/07 11:12:05;;;;;;;6.22;4.45;;;;;;;;;;6195836;28;20085;-80
2023/09/07 11:15:10;;;;;;;4.47;4.07;;;;;;;;;;6212036;28;20046;-79
2023/09/07 11:18:13;;;;;;;4.30;3.90;;;;;;;;;;6176987;28;20050;-80
2023/09/07 11:21:14;;;;;;;5.75;3.88;;;;;;;;;;6201027;28;20061;-80
2023/09/07 11:24:17;;;;;;;5.43;4.30;;;;;;;;;;6208782;28;20046;-79
2023/09/07 11:27:19;;;;;;;5.47;4.10;;;;;;;;;;6182661;28;20058;-81
2023/09/07 11:30:21;;;;;;;4.97;3.88;;;;;;;;;;6180109;28;20048;-79
2023/09/07 11:33:23;;;;;;;4.20;3.70;;;;;;;;;;6186179;28;20046;-80
2023/09/07 11:36:25;;;;;;;4.43;4.00;;;;;;;;;;6181949;28;20042;-78
2023/09/07 11:39:27;;;;;;;3.95;3.58;;;;;;;;;;6183422;28;20501;-78
2023/09/07 11:42:29;;;;;;;4.55;3.80;;;;;;;;;;6180471;28;20050;-78
2023/09/07 11:45:32;;;;;;;5.18;4.43;;;;;;;;;;6182554;28;20049;-77
2023/09/07 11:48:34;;;;;;;3.80;3.50;;;;;;;;;;6185673;28;20042;-80
2023/09/07 11:51:35;;;;;;;5.25;3.85;;;;;;;;;;6215767;28;20499;-78
2023/09/07 11:54:37;;;;;;;4.00;3.60;;;;;;;;;;6190362;28;20047;-76
2023/09/07 11:57:40;;;;;;;5.88;3.80;;;;;;;;;;6210606;28;20050;-77
2023/09/07 12:00:43;;;;;;;5.57;4.05;;;;;;;;;;6208283;28;20058;-76
2023/09/07 12:03:45;;;;;;;4.38;3.97;;;;;;;;;;6208694;28;20046;-78
2023/09/07 12:06:47;;;;;;;5.82;4.15;;;;;;;;;;6207001;28;20050;-77
2023/09/07 12:09:49;;;;;;;5.97;3.60;;;;;;;;;;6206984;28;20521;-79
2023/09/07 12:12:51;;;;;;;5.18;4.38;;;;;;;;;;6188720;28;20046;-79
2023/09/07 12:15:52;;;;;;;6.13;4.43;;;;;;;;;;6183164;28;20046;-81
2023/09/07 12:18:55;;;;;;;5.68;4.07;;;;;;;;;;6198540;28;20039;-76
2023/09/07 12:21:56;;;;;;;5.85;4.13;;;;;;;;;;6182418;28;20415;-78
2023/09/07 12:24:58;;;;;;;4.90;4.45;;;;;;;;;;6190438;28;20507;-77
2023/09/07 12:28:15;;;;;;;4.47;4.03;;;;;;;;;;6190091;28;20113;-80
2023/09/07 12:31:16;;;;;;;4.72;4.03;;;;;;;;;;6189046;28;20054;-80
2023/09/07 12:34:18;;;;;;;4.72;4.10;;;;;;;;;;6208735;28;20053;-79
2023/09/07 12:37:23;;;;;;;4.45;4.03;;;;;;;;;;6186774;28;20049;-81
2023/09/07 12:40:25;;;;;;;4.20;3.80;;;;;;;;;;6207221;28;20046;-80
2023/09/07 12:43:26;;;;;;;6.28;4.22;;;;;;;;;;6208254;28;20134;-80
2023/09/07 12:46:28;;;;;;;4.32;3.92;;;;;;;;;;6208500;28;20042;-78
2023/09/07 12:49:30;;;;;;;4.93;3.90;;;;;;;;;;6209797;28;20089;-80
2023/09/07 12:52:32;;;;;;;4.07;3.63;;;;;;;;;;6209550;28;20053;-79
2023/09/07 12:55:36;;;;;;;5.28;3.78;;;;;;;;;;6201326;28;20479;-80
2023/09/07 12:58:37;;;;;;;5.95;3.70;;;;;;;;;;6205826;28;20057;-80
2023/09/07 13:01:39;;;;;;;5.55;3.33;;;;;;;;;;6187587;28;20057;-81
2023/09/07 13:04:41;;;;;;;4.78;3.63;;;;;;;;;;6185134;28;20062;-78
2023/09/07 13:07:43;;;;;;;4.25;3.85;;;;;;;;;;6205285;28;20053;-78
2023/09/07 13:10:45;;;;;;;5.00;3.60;;;;;;;;;;6197725;28;20042;-76
2023/09/07 13:13:47;;;;;;;6.10;3.88;;;;;;;;;;6204538;28;20057;-78
2023/09/07 13:16:50;;;;;;;4.97;3.53;;;;;;;;;;6213159;28;20053;-78
2023/09/07 13:19:54;;;;;;;4.18;3.33;;;;;;;;;;6208563;28;20052;-77
2023/09/07 13:22:57;;;;;;;4.57;3.72;;;;;;;;;;6218511;28;20119;-76
2023/09/07 13:26:01;;;;;;;4.25;3.72;;;;;;;;;;6206859;28;20608;-77
2023/09/07 13:29:05;;;;;;;5.40;3.63;;;;;;;;;;6195889;28;20049;-81
2023/09/07 13:32:09;;;;;;;4.57;3.55;;;;;;;;;;6211251;28;20132;-78
2023/09/07 13:35:14;;;;;;;6.10;3.95;;;;;;;;;;6222719;28;20045;-77
2023/09/07 13:38:17;;;;;;;3.92;3.53;;;;;;;;;;6193237;28;20116;-78
2023/09/07 13:41:20;;;;;;;3.75;3.45;;;;;;;;;;6212796;28;20060;-78
2023/09/07 13:44:22;;;;;;;;;;;;;;;;;;6189609;28;20593;-78
2023/09/07 13:47:24;;;;;;;5.38;3.60;;;;;;;;;;6187948;28;19949;-78
2023/09/07 13:50:26;;;;;;;6.53;3.80;;;;;;;;;;6188672;28;20140;-76
2023/09/07 13:53:28;;;;;;;4.07;3.47;;;;;;;;;;6189379;28;20169;-76
2023/09/07 13:56:29;;;;;;;4.10;3.70;;;;;;;;;;6191770;28;20050;-77
2023/09/07 13:59:34;;;;;;;5.10;3.42;;;;;;;;;;6183726;28;20061;-77
2023/09/07 14:02:36;;;;;;;4.47;3.50;;;;;;;;;;6187724;28;20045;-77
2023/09/07 14:05:37;;;;;;;;;;;;;;;;;;6194766;28;20129;-78
2023/09/07 14:08:39;;;;;;;4.63;3.70;;;;;;;;;;6205872;28;19922;-77
2023/09/07 14:11:41;;;;;;;4.13;3.70;;;;;;;;;;6208115;28;20041;-77
2023/09/07 14:14:42;;;;;;;4.30;3.70;;;;;;;;;;6207721;28;20109;-77
2023/09/07 14:17:44;;;;;;;3.95;3.60;;;;;;;;;;6182623;28;20050;-77
2023/09/07 14:20:46;;;;;;;4.15;3.75;;;;;;;;;;6193370;28;20054;-78
2023/09/07 14:23:48;;;;;;;3.55;3.25;;;;;;;;;;6210591;28;20076;-78
2023/09/07 14:26:49;;;;;;;4.15;3.67;;;;;;;;;;6210015;28;20054;-78
2023/09/07 14:29:51;;;;;;;;;;;;;;;;;;6196531;28;20466;-77
2023/09/07 14:32:53;;;;;;;6.47;3.75;;;;;;;;;;6205165;28;20000;-79
2023/09/07 14:35:56;;;;;;;4.43;4.03;;;;;;;;;;6204820;28;20097;-80
2023/09/07 14:38:57;;;;;;;3.90;3.50;;;;;;;;;;6201169;28;20054;-78
2023/09/07 14:42:01;;;;;;;4.50;3.92;;;;;;;;;;6169394;28;20077;-82
2023/09/07 14:45:03;;;;;;;5.05;3.75;;;;;;;;;;6194164;28;20931;-77
2023/09/07 14:48:05;;;;;;;4.40;3.70;;;;;;;;;;6192951;28;20050;-76
2023/09/07 14:51:07;;;;;;;5.18;3.65;;;;;;;;;;6211560;28;20046;-79
2023/09/07 14:54:09;;;;;;;5.45;3.30;;;;;;;;;;6209087;28;20526;-77
2023/09/07 14:57:11;;;;;;;3.80;3.40;;;;;;;;;;6214602;28;20038;-78
2023/09/07 15:00:13;;;;;;;4.22;3.63;;;;;;;;;;6191403;28;20097;-77
2023/09/07 15:03:15;;;;;;;5.93;3.60;;;;;;;;;;6205707;28;20061;-78
2023/09/07 15:06:17;;;;;;;4.13;3.25;;;;;;;;;;6215588;28;21224;-77
2023/09/07 15:09:19;;;;;;;3.65;3.33;;;;;;;;;;6216203;28;20042;-78
2023/09/07 15:12:21;;;;;;;4.93;3.33;;;;;;;;;;6198234;28;20042;-76
2023/09/07 15:15:23;;;;;;;7.40;3.53;;;;;;;;;;6215623;28;20050;-78
2023/09/07 15:18:24;;;;;;;4.78;3.70;;;;;;;;;;6214409;28;20049;-76
2023/09/07 15:21:27;;;;;;;5.43;3.40;;;;;;;;;;6208474;28;20038;-78
2023/09/07 15:24:28;;;;;;;4.57;3.78;;;;;;;;;;6201554;28;20050;-76
2023/09/07 15:27:30;;;;;;;3.88;3.47;;;;;;;;;;6208964;28;20038;-76
2023/09/07 15:30:32;;;;;;;4.07;3.65;;;;;;;;;;6209739;28;20057;-78
2023/09/07 15:33:34;;;;;;;4.57;3.67;;;;;;;;;;6211662;28;20377;-79
2023/09/07 15:36:36;;;;;;;4.07;3.67;;;;;;;;;;6190939;28;20050;-76
2023/09/07 15:39:38;;;;;;;4.97;3.55;;;;;;;;;;6202894;28;20211;-76
2023/09/07 15:42:40;;;;;;;4.53;3.50;;;;;;;;;;6161011;28;20159;-77
2023/09/07 15:45:42;;;;;;;4.03;3.60;;;;;;;;;;6181003;28;20043;-77
2023/09/07 15:48:44;;;;;;;6.30;4.07;;;;;;;;;;6198482;28;20052;-76
2023/09/07 15:51:45;;;;;;;6.60;4.40;;;;;;;;;;6208834;28;20049;-77
2023/09/07 15:54:47;;;;;;;5.35;3.60;;;;;;;;;;6203174;28;20042;-77
2023/09/07 15:57:50;;;;;;;5.50;3.60;;;;;;;;;;6205718;28;20050;-78
2023/09/07 16:00:52;;;;;;;4.90;3.85;;;;;;;;;;6205471;28;20053;-77
2023/09/07 16:03:53;;;;;;;4.40;3.67;;;;;;;;;;6208343;28;20049;-79
2023/09/07 16:06:55;;;;;;;3.92;3.53;;;;;;;;;;6209587;28;20054;-79
2023/09/07 16:09:57;;;;;;;5.25;3.95;;;;;;;;;;6193259;28;20093;-77
2023/09/07 16:12:59;;;;;;;6.28;3.75;;;;;;;;;;6208208;28;20050;-77
2023/09/07 16:16:01;;;;;;;5.32;3.78;;;;;;;;;;6212422;28;20054;-76
2023/09/07 16:19:03;;;;;;;4.53;3.80;;;;;;;;;;6224045;28;20042;-79
2023/09/07 16:22:08;;;;;;;;;;;;;;;;;;6214394;28;20044;-78
2023/09/07 16:25:10;;;;;;;6.60;3.92;;;;;;;;;;6225243;28;19932;-78
2023/09/07 16:28:12;;;;;;;4.90;3.95;;;;;;;;;;6190244;28;20041;-78
2023/09/07 16:31:14;;;;;;;4.70;3.67;;;;;;;;;;6189609;28;20050;-78
2023/09/07 16:34:16;;;;;;;4.38;3.97;;;;;;;;;;6188427;28;20529;-79
2023/09/07 16:37:17;;;;;;;6.28;3.88;;;;;;;;;;6195777;28;20050;-78
2023/09/07 16:40:20;;;;;;;6.10;3.47;;;;;;;;;;6203143;28;20050;-76
2023/09/07 16:43:24;;;;;;;5.15;3.97;;;;;;;;;;6189407;28;20073;-78
2023/09/07 16:46:25;;;;;;;3.83;3.42;;;;;;;;;;6186800;28;20054;-77
2023/09/07 16:49:27;;;;;;;5.03;3.90;;;;;;;;;;6188967;28;20038;-78
2023/09/07 16:52:31;;;;;;;4.60;3.75;;;;;;;;;;6196256;28;20047;-76
2023/09/07 16:55:33;;;;;;;5.03;3.63;;;;;;;;;;6187687;28;21428;-77
2023/09/07 16:58:35;;;;;;;4.43;3.47;;;;;;;;;;6195950;28;20058;-75
2023/09/07 17:01:57;;;;;;;;;;;;;;;;;;6187734;28;20049;-78
2023/09/07 17:04:58;;;;;;;8.13;3.90;;;;;;;;;;6185190;28;19961;-77
2023/09/07 17:08:01;;;;;;;4.35;3.92;;;;;;;;;;6184753;28;20500;-78
2023/09/07 17:11:03;;;;;;;4.95;4.38;;;;;;;;;;6188129;28;20053;-79
2023/09/07 17:14:04;;;;;;;6.35;4.07;;;;;;;;;;6189798;28;20039;-76
2023/09/07 17:17:07;;;;;;;4.40;4.00;;;;;;;;;;6184934;28;20053;-78
2023/09/07 17:20:09;;;;;;;8.07;5.80;;;;;;;;;;6184580;28;20050;-77
2023/09/07 17:23:12;;;;;;;9.65;6.47;;;;;;;;;;6183560;28;20054;-76
2023/09/07 17:26:14;;;;;;;7.90;4.80;;;;;;;;;;6190121;28;20484;-77
2023/09/07 17:29:17;;;;;;;6.32;4.28;;;;;;;;;;6185150;28;20047;-78
2023/09/07 17:32:19;;;;;;;6.78;4.47;;;;;;;;;;6178918;28;20046;-76
2023/09/07 17:35:22;;;;;;;4.70;3.88;;;;;;;;;;6179891;28;20038;-75
2023/09/07 17:38:24;;;;;;;5.15;3.90;;;;;;;;;;6178495;28;20141;-74
2023/09/07 17:41:35;;;;;;;5.53;4.00;;;;;;;;;;6172396;28;20050;-75
2023/09/07 17:44:37;;;;;;;5.10;4.05;;;;;;;;;;6174427;28;20129;-75
2023/09/07 17:47:38;;;;;;;4.97;4.20;;;;;;;;;;6172284;28;20420;-75
2023/09/07 17:50:40;;;;;;;7.28;4.00;;;;;;;;;;6177659;28;20074;-75
2023/09/07 17:53:42;;;;;;;4.90;4.00;;;;;;;;;;6179589;28;20051;-75
2023/09/07 17:56:44;;;;;;;4.75;3.60;;;;;;;;;;6177630;28;20046;-75
2023/09/07 17:59:45;;;;;;;7.17;4.17;;;;;;;;;;6200195;28;20179;-75
2023/09/07 18:02:47;;;;;;;6.17;4.20;;;;;;;;;;6183156;28;20050;-75
2023/09/07 18:05:49;;;;;;;5.00;3.80;;;;;;;;;;6187938;28;20515;-74
2023/09/07 18:08:51;;;;;;;6.10;4.27;;;;;;;;;;6187271;28;20049;-75
2023/09/07 18:11:53;;;;;;;6.10;3.90;;;;;;;;;;6186184;28;20045;-75
2023/09/07 18:14:54;;;;;;;4.47;3.90;;;;;;;;;;6195837;28;20459;-75
2023/09/07 18:17:56;;;;;;;7.03;3.97;;;;;;;;;;6206646;28;20038;-75